sensor_id;sensor_type;location;lat;lon;timestamp;pressure;altitude;pressure_sealevel;temperature;humidity
58668;BME280;59852;43.086;25.634;2023-01-19T00:01:08;97923.09;;;13.08;70.12
58668;BME280;59852;43.086;25.634;2023-01-19T00:03:34;97921.56;;;13.05;70.25
58668;BME280;59852;43.086;25.634;2023-01-19T00:06:06;97903.88;;;13.07;70.30
58668;BME280;59852;43.086;25.634;2023-01-19T00:08:32;97913.44;;;13.08;70.03
58668;BME280;59852;43.086;25.634;2023-01-19T00:10:58;97928.34;;;13.08;70.40
58668;BME280;59852;43.086;25.634;2023-01-19T00:13:23;97928.72;;;13.13;70.20
58668;BME280;59852;43.086;25.634;2023-01-19T00:15:49;97930.91;;;13.27;69.55
58668;BME280;59852;43.086;25.634;2023-01-19T00:18:14;97937.00;;;13.28;69.37
58668;BME280;59852;43.086;25.634;2023-01-19T00:20:39;97924.97;;;13.25;69.60
58668;BME280;59852;43.086;25.634;2023-01-19T00:23:05;97931.69;;;13.37;68.98
58668;BME280;59852;43.086;25.634;2023-01-19T00:25:32;97936.03;;;13.29;68.96
58668;BME280;59852;43.086;25.634;2023-01-19T00:27:57;97944.59;;;13.31;69.01
58668;BME280;59852;43.086;25.634;2023-01-19T00:30:22;97941.81;;;13.32;69.29
58668;BME280;59852;43.086;25.634;2023-01-19T00:32:48;97953.59;;;13.28;69.23
58668;BME280;59852;43.086;25.634;2023-01-19T00:35:13;97962.03;;;13.22;69.70
58668;BME280;59852;43.086;25.634;2023-01-19T00:37:39;97954.78;;;13.34;68.79
58668;BME280;59852;43.086;25.634;2023-01-19T00:40:04;97967.13;;;13.24;69.30
58668;BME280;59852;43.086;25.634;2023-01-19T00:42:30;97965.75;;;13.29;69.15
58668;BME280;59852;43.086;25.634;2023-01-19T00:45:07;97983.38;;;13.37;68.63
58668;BME280;59852;43.086;25.634;2023-01-19T00:47:33;97986.97;;;13.36;68.40
58668;BME280;59852;43.086;25.634;2023-01-19T00:49:59;97987.53;;;13.39;68.48
58668;BME280;59852;43.086;25.634;2023-01-19T00:52:24;97994.44;;;13.40;68.14
58668;BME280;59852;43.086;25.634;2023-01-19T00:54:49;97995.94;;;13.43;67.77
58668;BME280;59852;43.086;25.634;2023-01-19T00:57:15;97984.56;;;13.52;67.80
58668;BME280;59852;43.086;25.634;2023-01-19T00:59:40;97990.84;;;13.41;67.77
58668;BME280;59852;43.086;25.634;2023-01-19T01:02:06;97978.97;;;13.37;68.18
58668;BME280;59852;43.086;25.634;2023-01-19T01:04:31;97986.56;;;13.40;67.74
58668;BME280;59852;43.086;25.634;2023-01-19T01:06:56;97987.94;;;13.35;68.16
58668;BME280;59852;43.086;25.634;2023-01-19T01:09:22;97988.34;;;13.40;67.81
58668;BME280;59852;43.086;25.634;2023-01-19T01:11:48;97982.69;;;13.35;68.33
58668;BME280;59852;43.086;25.634;2023-01-19T01:14:13;97988.25;;;13.32;68.45
58668;BME280;59852;43.086;25.634;2023-01-19T01:16:39;97990.56;;;13.35;68.07
58668;BME280;59852;43.086;25.634;2023-01-19T01:19:04;97994.44;;;13.40;67.70
58668;BME280;59852;43.086;25.634;2023-01-19T01:21:30;97991.50;;;13.43;67.64
58668;BME280;59852;43.086;25.634;2023-01-19T01:23:55;97990.84;;;13.41;67.51
58668;BME280;59852;43.086;25.634;2023-01-19T01:26:20;97986.09;;;13.45;67.70
58668;BME280;59852;43.086;25.634;2023-01-19T01:28:46;97971.81;;;13.30;68.20
58668;BME280;59852;43.086;25.634;2023-01-19T01:31:11;97975.78;;;13.34;67.87
58668;BME280;59852;43.086;25.634;2023-01-19T01:33:36;97982.59;;;13.27;68.32
58668;BME280;59852;43.086;25.634;2023-01-19T01:36:02;97978.03;;;13.29;68.01
58668;BME280;59852;43.086;25.634;2023-01-19T01:38:27;97980.94;;;13.26;68.45
58668;BME280;59852;43.086;25.634;2023-01-19T01:40:53;97977.34;;;13.27;68.12
58668;BME280;59852;43.086;25.634;2023-01-19T01:43:18;97973.03;;;13.35;67.75
58668;BME280;59852;43.086;25.634;2023-01-19T01:45:44;97970.34;;;13.45;67.48
58668;BME280;59852;43.086;25.634;2023-01-19T01:50:40;97976.25;;;13.29;68.00
58668;BME280;59852;43.086;25.634;2023-01-19T01:53:28;97960.91;;;13.25;68.04
58668;BME280;59852;43.086;25.634;2023-01-19T01:55:54;97969.28;;;13.38;67.69
58668;BME280;59852;43.086;25.634;2023-01-19T01:58:20;97970.16;;;13.29;67.69
58668;BME280;59852;43.086;25.634;2023-01-19T02:00:46;97963.63;;;13.33;67.86
58668;BME280;59852;43.086;25.634;2023-01-19T02:03:30;97953.84;;;13.25;67.88
58668;BME280;59852;43.086;25.634;2023-01-19T02:05:58;97959.09;;;13.25;68.09
58668;BME280;59852;43.086;25.634;2023-01-19T02:08:29;97949.72;;;13.23;68.24
58668;BME280;59852;43.086;25.634;2023-01-19T02:11:15;97956.94;;;13.20;67.93
58668;BME280;59852;43.086;25.634;2023-01-19T02:13:59;97954.81;;;13.24;67.78
58668;BME280;59852;43.086;25.634;2023-01-19T02:16:27;97952.38;;;13.13;68.39
58668;BME280;59852;43.086;25.634;2023-01-19T02:18:54;97961.84;;;13.33;67.24
58668;BME280;59852;43.086;25.634;2023-01-19T02:23:57;97952.34;;;13.23;67.65
58668;BME280;59852;43.086;25.634;2023-01-19T02:26:56;97958.13;;;13.16;68.26
58668;BME280;59852;43.086;25.634;2023-01-19T02:29:18;97963.16;;;13.10;68.16
58668;BME280;59852;43.086;25.634;2023-01-19T02:31:44;97967.59;;;13.19;67.64
58668;BME280;59852;43.086;25.634;2023-01-19T02:34:11;97959.09;;;13.25;67.33
58668;BME280;59852;43.086;25.634;2023-01-19T02:39:10;97968.94;;;13.13;67.71
58668;BME280;59852;43.086;25.634;2023-01-19T02:41:41;97968.66;;;13.16;67.52
58668;BME280;59852;43.086;25.634;2023-01-19T02:44:08;97965.50;;;13.13;67.64
58668;BME280;59852;43.086;25.634;2023-01-19T02:46:35;97970.31;;;13.17;67.30
58668;BME280;59852;43.086;25.634;2023-01-19T02:49:00;97970.88;;;13.11;67.32
58668;BME280;59852;43.086;25.634;2023-01-19T02:51:26;97979.28;;;13.15;67.28
58668;BME280;59852;43.086;25.634;2023-01-19T02:54:35;97979.44;;;13.13;67.08
58668;BME280;59852;43.086;25.634;2023-01-19T03:06:45;97973.94;;;13.07;67.08
58668;BME280;59852;43.086;25.634;2023-01-19T03:09:28;97970.38;;;13.08;66.76
58668;BME280;59852;43.086;25.634;2023-01-19T03:14:42;97982.63;;;13.07;66.74
58668;BME280;59852;43.086;25.634;2023-01-19T03:17:10;97994.56;;;13.02;66.86
58668;BME280;59852;43.086;25.634;2023-01-19T03:19:38;97998.78;;;13.12;66.24
58668;BME280;59852;43.086;25.634;2023-01-19T03:22:16;97990.50;;;13.07;66.49
58668;BME280;59852;43.086;25.634;2023-01-19T03:24:43;97987.47;;;13.12;66.13
58668;BME280;59852;43.086;25.634;2023-01-19T03:27:14;97987.63;;;13.10;65.93
58668;BME280;59852;43.086;25.634;2023-01-19T03:29:43;97982.09;;;13.04;66.43
58668;BME280;59852;43.086;25.634;2023-01-19T03:32:13;97992.19;;;13.08;66.08
58668;BME280;59852;43.086;25.634;2023-01-19T03:34:40;97995.09;;;13.05;66.36
58668;BME280;59852;43.086;25.634;2023-01-19T03:37:07;97987.22;;;13.05;66.00
58668;BME280;59852;43.086;25.634;2023-01-19T03:39:34;97988.31;;;13.03;66.16
58668;BME280;59852;43.086;25.634;2023-01-19T03:42:01;97983.53;;;12.98;66.42
58668;BME280;59852;43.086;25.634;2023-01-19T03:44:28;97985.41;;;13.06;66.12
58668;BME280;59852;43.086;25.634;2023-01-19T03:46:55;97989.31;;;13.02;66.38
58668;BME280;59852;43.086;25.634;2023-01-19T03:49:22;97979.09;;;12.99;66.42
58668;BME280;59852;43.086;25.634;2023-01-19T03:51:47;97985.44;;;12.96;66.37
58668;BME280;59852;43.086;25.634;2023-01-19T03:54:13;97989.56;;;13.08;65.82
58668;BME280;59852;43.086;25.634;2023-01-19T03:56:38;97979.78;;;13.01;66.16
58668;BME280;59852;43.086;25.634;2023-01-19T03:59:03;97978.81;;;12.92;66.58
58668;BME280;59852;43.086;25.634;2023-01-19T04:01:32;97975.78;;;12.87;66.68
58668;BME280;59852;43.086;25.634;2023-01-19T04:03:57;97975.41;;;12.82;67.10
58668;BME280;59852;43.086;25.634;2023-01-19T04:06:22;97986.59;;;12.84;66.89
58668;BME280;59852;43.086;25.634;2023-01-19T04:08:48;97985.19;;;12.89;66.54
58668;BME280;59852;43.086;25.634;2023-01-19T04:11:14;97987.69;;;12.81;66.82
58668;BME280;59852;43.086;25.634;2023-01-19T04:13:39;97990.72;;;12.77;67.29
58668;BME280;59852;43.086;25.634;2023-01-19T04:16:05;97993.25;;;12.69;67.57
58668;BME280;59852;43.086;25.634;2023-01-19T04:18:31;97998.22;;;12.72;67.38
58668;BME280;59852;43.086;25.634;2023-01-19T04:21:00;97996.56;;;12.71;67.47
58668;BME280;59852;43.086;25.634;2023-01-19T04:23:26;97996.81;;;12.77;66.96
58668;BME280;59852;43.086;25.634;2023-01-19T04:25:55;97996.81;;;12.77;66.94
58668;BME280;59852;43.086;25.634;2023-01-19T04:28:21;97996.25;;;12.83;66.63
58668;BME280;59852;43.086;25.634;2023-01-19T04:30:48;97999.03;;;12.82;66.30
58668;BME280;59852;43.086;25.634;2023-01-19T04:33:14;97990.19;;;12.83;66.41
58668;BME280;59852;43.086;25.634;2023-01-19T04:35:39;97991.94;;;12.92;65.57
58668;BME280;59852;43.086;25.634;2023-01-19T04:38:06;98001.47;;;12.93;65.49
58668;BME280;59852;43.086;25.634;2023-01-19T04:40:31;97996.78;;;12.87;65.63
58668;BME280;59852;43.086;25.634;2023-01-19T04:42:56;98006.59;;;12.85;65.77
58668;BME280;59852;43.086;25.634;2023-01-19T04:45:22;98000.38;;;12.86;65.48
58668;BME280;59852;43.086;25.634;2023-01-19T04:47:47;98006.47;;;12.86;65.28
58668;BME280;59852;43.086;25.634;2023-01-19T04:50:13;98007.03;;;12.90;65.19
58668;BME280;59852;43.086;25.634;2023-01-19T04:52:39;98018.88;;;12.94;64.98
58668;BME280;59852;43.086;25.634;2023-01-19T04:55:05;98033.78;;;13.03;64.52
58668;BME280;59852;43.086;25.634;2023-01-19T04:57:30;98025.09;;;12.93;64.94
58668;BME280;59852;43.086;25.634;2023-01-19T04:59:56;98028.00;;;13.00;64.93
58668;BME280;59852;43.086;25.634;2023-01-19T05:02:22;98029.91;;;12.98;64.87
58668;BME280;59852;43.086;25.634;2023-01-19T05:04:47;98024.66;;;12.98;64.74
58668;BME280;59852;43.086;25.634;2023-01-19T05:07:13;98027.59;;;12.85;65.57
58668;BME280;59852;43.086;25.634;2023-01-19T05:09:38;98029.66;;;13.01;64.95
58668;BME280;59852;43.086;25.634;2023-01-19T05:12:04;98023.03;;;12.87;65.70
58668;BME280;59852;43.086;25.634;2023-01-19T05:14:29;98037.25;;;12.94;65.74
58668;BME280;59852;43.086;25.634;2023-01-19T05:16:55;98038.78;;;12.87;65.87
58668;BME280;59852;43.086;25.634;2023-01-19T05:19:20;98032.78;;;13.14;64.87
58668;BME280;59852;43.086;25.634;2023-01-19T05:21:45;98032.78;;;13.24;64.72
58668;BME280;59852;43.086;25.634;2023-01-19T05:24:11;98031.84;;;13.05;65.31
58668;BME280;59852;43.086;25.634;2023-01-19T05:26:36;98043.19;;;12.86;66.03
58668;BME280;59852;43.086;25.634;2023-01-19T05:29:02;98036.41;;;13.03;65.27
58668;BME280;59852;43.086;25.634;2023-01-19T05:31:27;98030.63;;;13.00;65.45
58668;BME280;59852;43.086;25.634;2023-01-19T05:33:53;98031.72;;;12.97;65.18
58668;BME280;59852;43.086;25.634;2023-01-19T05:36:18;98045.13;;;12.94;65.53
58668;BME280;59852;43.086;25.634;2023-01-19T05:38:43;98050.09;;;12.87;65.66
58668;BME280;59852;43.086;25.634;2023-01-19T05:41:09;98039.91;;;12.75;66.46
58668;BME280;59852;43.086;25.634;2023-01-19T05:43:34;98036.56;;;12.92;65.30
58668;BME280;59852;43.086;25.634;2023-01-19T05:45:59;98042.25;;;12.78;66.15
58668;BME280;59852;43.086;25.634;2023-01-19T05:48:25;98043.94;;;12.79;66.15
58668;BME280;59852;43.086;25.634;2023-01-19T05:50:50;98051.66;;;12.80;66.10
58668;BME280;59852;43.086;25.634;2023-01-19T05:53:15;98046.94;;;12.84;65.50
58668;BME280;59852;43.086;25.634;2023-01-19T05:55:41;98036.72;;;12.81;65.62
58668;BME280;59852;43.086;25.634;2023-01-19T05:58:07;98031.63;;;12.89;65.23
58668;BME280;59852;43.086;25.634;2023-01-19T06:00:32;98044.00;;;12.97;64.91
58668;BME280;59852;43.086;25.634;2023-01-19T06:02:57;98038.22;;;12.93;64.94
58668;BME280;59852;43.086;25.634;2023-01-19T06:05:24;98036.97;;;12.87;65.24
58668;BME280;59852;43.086;25.634;2023-01-19T06:07:49;98022.47;;;12.93;65.12
58668;BME280;59852;43.086;25.634;2023-01-19T06:10:15;98023.25;;;13.13;64.28
58668;BME280;59852;43.086;25.634;2023-01-19T06:12:40;98031.97;;;13.13;64.28
58668;BME280;59852;43.086;25.634;2023-01-19T06:15:06;98030.16;;;13.14;64.20
58668;BME280;59852;43.086;25.634;2023-01-19T06:17:31;98036.38;;;13.23;63.74
58668;BME280;59852;43.086;25.634;2023-01-19T06:19:57;98029.31;;;13.33;62.98
58668;BME280;59852;43.086;25.634;2023-01-19T06:22:22;98031.63;;;13.36;63.21
58668;BME280;59852;43.086;25.634;2023-01-19T06:24:47;98036.31;;;13.42;63.15
58668;BME280;59852;43.086;25.634;2023-01-19T06:27:13;98032.00;;;13.51;62.68
58668;BME280;59852;43.086;25.634;2023-01-19T06:29:38;98037.22;;;13.60;61.94
58668;BME280;59852;43.086;25.634;2023-01-19T06:32:03;98039.38;;;13.65;62.25
58668;BME280;59852;43.086;25.634;2023-01-19T06:34:29;98055.25;;;13.73;61.69
58668;BME280;59852;43.086;25.634;2023-01-19T06:36:54;98034.69;;;13.86;60.86
58668;BME280;59852;43.086;25.634;2023-01-19T06:39:20;98042.25;;;13.99;60.76
58668;BME280;59852;43.086;25.634;2023-01-19T06:41:45;98042.97;;;14.19;60.36
58668;BME280;59852;43.086;25.634;2023-01-19T06:44:10;98057.38;;;14.15;60.38
58668;BME280;59852;43.086;25.634;2023-01-19T06:46:36;98053.69;;;14.25;60.05
58668;BME280;59852;43.086;25.634;2023-01-19T06:49:01;98041.75;;;14.13;60.26
58668;BME280;59852;43.086;25.634;2023-01-19T06:51:26;98056.78;;;14.21;60.36
58668;BME280;59852;43.086;25.634;2023-01-19T06:53:52;98054.53;;;14.44;59.73
58668;BME280;59852;43.086;25.634;2023-01-19T06:56:17;98065.38;;;14.41;59.85
58668;BME280;59852;43.086;25.634;2023-01-19T06:58:42;98065.91;;;14.62;59.51
58668;BME280;59852;43.086;25.634;2023-01-19T07:01:08;98053.00;;;15.72;55.52
58668;BME280;59852;43.086;25.634;2023-01-19T07:03:33;98039.59;;;16.08;54.35
58668;BME280;59852;43.086;25.634;2023-01-19T07:05:59;98057.31;;;15.47;55.80
58668;BME280;59852;43.086;25.634;2023-01-19T07:08:26;98058.78;;;15.16;56.75
58668;BME280;59852;43.086;25.634;2023-01-19T07:10:52;98046.31;;;16.77;52.56
58668;BME280;59852;43.086;25.634;2023-01-19T07:13:22;98063.81;;;16.95;51.37
58668;BME280;59852;43.086;25.634;2023-01-19T07:15:47;98070.84;;;19.36;45.94
58668;BME280;59852;43.086;25.634;2023-01-19T07:18:13;98071.84;;;18.82;46.00
58668;BME280;59852;43.086;25.634;2023-01-19T07:20:38;98072.69;;;19.94;43.48
58668;BME280;59852;43.086;25.634;2023-01-19T07:23:04;98070.81;;;19.59;44.63
58668;BME280;59852;43.086;25.634;2023-01-19T07:25:29;98078.28;;;19.55;44.64
58668;BME280;59852;43.086;25.634;2023-01-19T07:27:55;98084.28;;;21.51;39.51
58668;BME280;59852;43.086;25.634;2023-01-19T07:30:21;98097.41;;;19.95;42.82
58668;BME280;59852;43.086;25.634;2023-01-19T07:32:46;98106.56;;;19.10;44.51
58668;BME280;59852;43.086;25.634;2023-01-19T07:35:11;98116.47;;;19.31;44.61
58668;BME280;59852;43.086;25.634;2023-01-19T07:37:36;98100.69;;;17.76;48.09
58668;BME280;59852;43.086;25.634;2023-01-19T07:40:02;98084.88;;;18.61;47.10
58668;BME280;59852;43.086;25.634;2023-01-19T07:42:28;98100.19;;;22.07;38.90
58668;BME280;59852;43.086;25.634;2023-01-19T07:44:53;98081.59;;;20.95;39.83
58668;BME280;59852;43.086;25.634;2023-01-19T07:47:18;98071.25;;;21.28;38.63
58668;BME280;59852;43.086;25.634;2023-01-19T07:49:44;98074.53;;;22.54;37.33
58668;BME280;59852;43.086;25.634;2023-01-19T07:52:09;98061.81;;;21.54;39.07
58668;BME280;59852;43.086;25.634;2023-01-19T07:54:34;98064.34;;;23.50;35.85
58668;BME280;59852;43.086;25.634;2023-01-19T07:57:00;98070.66;;;24.34;33.71
58668;BME280;59852;43.086;25.634;2023-01-19T07:59:26;98077.59;;;21.62;38.05
58668;BME280;59852;43.086;25.634;2023-01-19T08:01:51;98081.78;;;23.59;34.84
58668;BME280;59852;43.086;25.634;2023-01-19T08:04:18;98083.44;;;22.20;37.15
58668;BME280;59852;43.086;25.634;2023-01-19T08:06:43;98063.53;;;22.97;35.60
58668;BME280;59852;43.086;25.634;2023-01-19T08:09:09;98084.06;;;23.16;34.98
58668;BME280;59852;43.086;25.634;2023-01-19T08:11:35;98064.41;;;24.46;33.25
58668;BME280;59852;43.086;25.634;2023-01-19T08:14:01;98067.81;;;26.03;30.18
58668;BME280;59852;43.086;25.634;2023-01-19T08:16:26;98084.81;;;23.76;33.52
58668;BME280;59852;43.086;25.634;2023-01-19T08:18:52;98065.31;;;25.46;30.83
58668;BME280;59852;43.086;25.634;2023-01-19T08:21:17;98063.56;;;24.84;31.65
58668;BME280;59852;43.086;25.634;2023-01-19T08:23:42;98062.03;;;25.44;30.51
58668;BME280;59852;43.086;25.634;2023-01-19T08:26:21;98071.09;;;23.39;34.26
58668;BME280;59852;43.086;25.634;2023-01-19T08:28:52;98064.03;;;25.92;30.52
58668;BME280;59852;43.086;25.634;2023-01-19T08:31:17;98069.44;;;25.24;31.26
58668;BME280;59852;43.086;25.634;2023-01-19T08:33:42;98047.72;;;25.76;30.20
58668;BME280;59852;43.086;25.634;2023-01-19T08:36:08;98065.75;;;23.53;33.22
58668;BME280;59852;43.086;25.634;2023-01-19T08:38:33;98062.59;;;20.98;37.60
58668;BME280;59852;43.086;25.634;2023-01-19T08:40:58;98063.44;;;18.79;42.75
58668;BME280;59852;43.086;25.634;2023-01-19T08:43:24;98057.94;;;18.80;43.05
58668;BME280;59852;43.086;25.634;2023-01-19T08:45:49;98069.31;;;18.89;43.37
58668;BME280;59852;43.086;25.634;2023-01-19T08:48:16;98068.19;;;17.98;44.90
58668;BME280;59852;43.086;25.634;2023-01-19T08:50:44;98060.31;;;17.90;45.19
58668;BME280;59852;43.086;25.634;2023-01-19T08:53:09;98060.34;;;18.13;44.95
58668;BME280;59852;43.086;25.634;2023-01-19T08:55:35;98066.75;;;17.88;45.56
58668;BME280;59852;43.086;25.634;2023-01-19T08:58:01;98055.22;;;17.81;45.44
58668;BME280;59852;43.086;25.634;2023-01-19T09:00:28;98045.03;;;18.00;45.76
58668;BME280;59852;43.086;25.634;2023-01-19T09:02:55;98046.50;;;18.03;45.63
58668;BME280;59852;43.086;25.634;2023-01-19T09:05:21;98048.97;;;17.65;45.87
58668;BME280;59852;43.086;25.634;2023-01-19T09:07:46;98042.59;;;17.43;46.64
58668;BME280;59852;43.086;25.634;2023-01-19T09:10:12;98033.91;;;17.74;46.02
58668;BME280;59852;43.086;25.634;2023-01-19T09:12:38;98028.81;;;17.64;46.22
58668;BME280;59852;43.086;25.634;2023-01-19T09:15:04;98037.84;;;17.31;47.35
58668;BME280;59852;43.086;25.634;2023-01-19T09:17:29;98026.75;;;17.35;46.92
58668;BME280;59852;43.086;25.634;2023-01-19T09:19:54;98028.47;;;17.59;47.04
58668;BME280;59852;43.086;25.634;2023-01-19T09:22:20;98007.88;;;17.46;46.78
58668;BME280;59852;43.086;25.634;2023-01-19T09:24:45;98014.63;;;17.49;46.85
58668;BME280;59852;43.086;25.634;2023-01-19T09:27:10;98020.06;;;17.56;46.97
58668;BME280;59852;43.086;25.634;2023-01-19T09:29:36;98027.06;;;17.40;46.92
58668;BME280;59852;43.086;25.634;2023-01-19T09:32:01;97999.13;;;17.46;47.34
58668;BME280;59852;43.086;25.634;2023-01-19T09:34:26;98001.53;;;17.64;47.30
58668;BME280;59852;43.086;25.634;2023-01-19T09:36:52;97994.09;;;17.59;47.38
58668;BME280;59852;43.086;25.634;2023-01-19T09:39:17;97994.63;;;17.55;47.43
58668;BME280;59852;43.086;25.634;2023-01-19T09:41:44;97995.34;;;17.40;47.58
58668;BME280;59852;43.086;25.634;2023-01-19T09:44:32;98019.16;;;17.32;47.43
58668;BME280;59852;43.086;25.634;2023-01-19T09:46:57;97999.47;;;17.43;47.81
58668;BME280;59852;43.086;25.634;2023-01-19T09:49:30;97988.38;;;17.39;47.12
58668;BME280;59852;43.086;25.634;2023-01-19T09:51:58;97984.19;;;17.22;47.76
58668;BME280;59852;43.086;25.634;2023-01-19T09:57:11;97963.28;;;17.43;46.70
58668;BME280;59852;43.086;25.634;2023-01-19T09:59:37;97962.03;;;17.62;47.09
58668;BME280;59852;43.086;25.634;2023-01-19T10:04:38;97966.94;;;17.34;47.32
58668;BME280;59852;43.086;25.634;2023-01-19T10:07:10;97967.56;;;17.44;47.27
58668;BME280;59852;43.086;25.634;2023-01-19T10:09:46;97952.22;;;17.40;46.56
58668;BME280;59852;43.086;25.634;2023-01-19T10:14:48;97951.19;;;17.49;47.47
58668;BME280;59852;43.086;25.634;2023-01-19T10:19:58;97921.81;;;17.44;46.61
58668;BME280;59852;43.086;25.634;2023-01-19T10:22:27;97936.84;;;17.43;46.21
58668;BME280;59852;43.086;25.634;2023-01-19T10:24:56;97921.63;;;17.45;46.86
58668;BME280;59852;43.086;25.634;2023-01-19T10:27:25;97937.66;;;17.44;46.28
58668;BME280;59852;43.086;25.634;2023-01-19T10:29:51;97927.56;;;17.47;45.91
58668;BME280;59852;43.086;25.634;2023-01-19T10:32:18;97915.88;;;17.42;45.09
58668;BME280;59852;43.086;25.634;2023-01-19T10:34:45;97939.47;;;17.52;45.17
58668;BME280;59852;43.086;25.634;2023-01-19T10:37:17;97921.81;;;17.44;45.89
58668;BME280;59852;43.086;25.634;2023-01-19T10:39:50;97901.91;;;17.56;46.15
58668;BME280;59852;43.086;25.634;2023-01-19T10:42:16;97934.28;;;17.58;46.00
58668;BME280;59852;43.086;25.634;2023-01-19T10:44:42;97929.22;;;17.48;45.90
58668;BME280;59852;43.086;25.634;2023-01-19T10:47:19;97905.22;;;17.50;46.23
58668;BME280;59852;43.086;25.634;2023-01-19T10:49:46;97914.78;;;17.59;46.06
58668;BME280;59852;43.086;25.634;2023-01-19T10:52:32;97919.44;;;17.49;46.18
58668;BME280;59852;43.086;25.634;2023-01-19T10:54:57;97916.53;;;17.44;46.32
58668;BME280;59852;43.086;25.634;2023-01-19T10:57:26;97894.22;;;17.38;46.75
58668;BME280;59852;43.086;25.634;2023-01-19T10:59:52;97895.50;;;17.51;46.87
58668;BME280;59852;43.086;25.634;2023-01-19T11:04:43;97907.19;;;17.56;46.34
58668;BME280;59852;43.086;25.634;2023-01-19T11:07:26;97896.19;;;17.44;45.56
58668;BME280;59852;43.086;25.634;2023-01-19T11:10:10;97882.06;;;17.60;45.97
58668;BME280;59852;43.086;25.634;2023-01-19T11:12:43;97897.25;;;17.58;46.71
58668;BME280;59852;43.086;25.634;2023-01-19T11:17:54;97898.31;;;17.49;46.87
58668;BME280;59852;43.086;25.634;2023-01-19T11:20:21;97887.66;;;17.34;47.25
58668;BME280;59852;43.086;25.634;2023-01-19T11:22:47;97894.72;;;17.42;46.31
58668;BME280;59852;43.086;25.634;2023-01-19T11:25:20;97902.91;;;17.55;46.15
58668;BME280;59852;43.086;25.634;2023-01-19T11:27:49;97906.03;;;17.59;46.17
58668;BME280;59852;43.086;25.634;2023-01-19T11:30:19;97898.91;;;17.59;46.40
58668;BME280;59852;43.086;25.634;2023-01-19T11:32:46;97896.97;;;17.53;46.79
58668;BME280;59852;43.086;25.634;2023-01-19T11:35:30;97909.84;;;17.56;46.43
58668;BME280;59852;43.086;25.634;2023-01-19T11:40:36;97889.34;;;17.58;46.00
58668;BME280;59852;43.086;25.634;2023-01-19T11:43:02;97886.03;;;17.56;46.13
58668;BME280;59852;43.086;25.634;2023-01-19T11:45:27;97878.16;;;17.48;46.50
58668;BME280;59852;43.086;25.634;2023-01-19T11:47:53;97915.53;;;17.45;46.02
58668;BME280;59852;43.086;25.634;2023-01-19T11:50:32;97899.47;;;17.46;46.41
58668;BME280;59852;43.086;25.634;2023-01-19T11:53:00;97892.00;;;17.50;45.99
58668;BME280;59852;43.086;25.634;2023-01-19T11:55:35;97889.75;;;17.39;46.73
58668;BME280;59852;43.086;25.634;2023-01-19T11:58:01;97902.97;;;17.39;46.52
58668;BME280;59852;43.086;25.634;2023-01-19T12:00:35;97902.16;;;17.38;46.98
58668;BME280;59852;43.086;25.634;2023-01-19T12:05:30;97903.97;;;17.38;47.06
58668;BME280;59852;43.086;25.634;2023-01-19T12:07:57;97907.84;;;17.27;46.69
58668;BME280;59852;43.086;25.634;2023-01-19T12:10:28;97896.19;;;17.05;46.83
58668;BME280;59852;43.086;25.634;2023-01-19T12:12:55;97892.09;;;17.03;47.43
58668;BME280;59852;43.086;25.634;2023-01-19T12:17:50;97893.66;;;17.20;47.14
58668;BME280;59852;43.086;25.634;2023-01-19T12:28:32;97874.91;;;16.99;47.13
58668;BME280;59852;43.086;25.634;2023-01-19T12:30:59;97877.38;;;17.00;47.13
58668;BME280;59852;43.086;25.634;2023-01-19T12:36:36;97882.75;;;16.84;47.75
58668;BME280;59852;43.086;25.634;2023-01-19T12:38:39;97869.53;;;16.84;47.73
58668;BME280;59852;43.086;25.634;2023-01-19T12:43:39;97895.44;;;16.80;47.45
58668;BME280;59852;43.086;25.634;2023-01-19T12:46:38;97924.66;;;16.79;47.13
58668;BME280;59852;43.086;25.634;2023-01-19T12:49:30;97904.19;;;16.81;47.56
58668;BME280;59852;43.086;25.634;2023-01-19T12:51:48;97888.03;;;16.84;47.67
58668;BME280;59852;43.086;25.634;2023-01-19T12:54:27;97933.41;;;16.87;47.58
58668;BME280;59852;43.086;25.634;2023-01-19T12:57:01;97933.91;;;16.83;46.82
58668;BME280;59852;43.086;25.634;2023-01-19T12:59:29;97928.94;;;16.80;47.17
58668;BME280;59852;43.086;25.634;2023-01-19T13:04:39;97945.63;;;16.80;47.33
58668;BME280;59852;43.086;25.634;2023-01-19T13:07:04;97956.34;;;16.79;47.42
58668;BME280;59852;43.086;25.634;2023-01-19T13:09:35;97956.34;;;16.71;47.29
58668;BME280;59852;43.086;25.634;2023-01-19T13:14:36;97960.31;;;16.67;47.49
58668;BME280;59852;43.086;25.634;2023-01-19T13:17:02;97958.84;;;16.64;47.24
58668;BME280;59852;43.086;25.634;2023-01-19T13:19:31;97960.31;;;16.67;47.49
58668;BME280;59852;43.086;25.634;2023-01-19T13:21:59;97955.53;;;16.62;46.71
58668;BME280;59852;43.086;25.634;2023-01-19T13:25:03;97964.75;;;16.66;46.59
58668;BME280;59852;43.086;25.634;2023-01-19T13:27:29;97963.28;;;16.63;47.28
58668;BME280;59852;43.086;25.634;2023-01-19T13:29:54;97977.66;;;16.53;47.21
58668;BME280;59852;43.086;25.634;2023-01-19T13:32:19;97985.41;;;16.54;47.23
58668;BME280;59852;43.086;25.634;2023-01-19T13:34:57;97977.47;;;16.54;47.24
58668;BME280;59852;43.086;25.634;2023-01-19T13:37:27;97995.13;;;16.46;47.76
58668;BME280;59852;43.086;25.634;2023-01-19T13:39:53;97979.13;;;16.47;47.18
58668;BME280;59852;43.086;25.634;2023-01-19T13:42:38;97984.09;;;16.42;47.67
58668;BME280;59852;43.086;25.634;2023-01-19T13:45:50;98012.78;;;16.45;47.01
58668;BME280;59852;43.086;25.634;2023-01-19T13:47:50;98006.84;;;16.43;47.37
58668;BME280;59852;43.086;25.634;2023-01-19T13:52:44;98003.53;;;16.33;47.50
58668;BME280;59852;43.086;25.634;2023-01-19T13:55:13;98017.56;;;16.25;47.67
58668;BME280;59852;43.086;25.634;2023-01-19T13:57:39;97991.16;;;16.17;48.00